createdAt,value
2022-11-03T00:02:02.279Z,5.28
2022-11-03T00:04:28.884Z,4.82
2022-11-03T00:06:55.836Z,5.15
2022-11-03T00:09:23.931Z,4.70
2022-11-03T00:11:51.391Z,5.38
2022-11-03T00:14:18.647Z,4.57
2022-11-03T00:16:45.609Z,4.85
2022-11-03T00:19:13.716Z,5.05
2022-11-03T00:21:40.260Z,4.53
2022-11-03T00:24:07.025Z,4.90
2022-11-03T00:26:35.928Z,4.88
2022-11-03T00:29:08.022Z,5.00
2022-11-03T00:31:36.423Z,5.15
2022-11-03T00:34:03.725Z,4.97
2022-11-03T00:36:33.111Z,5.10
2022-11-03T00:38:59.605Z,4.78
2022-11-03T00:41:26.791Z,4.95
2022-11-03T00:43:53.965Z,5.43
2022-11-03T00:46:22.413Z,5.40
2022-11-03T00:48:49.062Z,5.97
2022-11-03T00:51:24.279Z,5.60
2022-11-03T00:53:56.137Z,4.68
2022-11-03T00:58:49.928Z,4.88
2022-11-03T01:01:18.809Z,5.90
2022-11-03T01:04:06.307Z,5.50
2022-11-03T01:06:50.223Z,5.25
2022-11-03T01:09:29.054Z,5.32
2022-11-03T01:12:02.214Z,5.57
2022-11-03T01:14:32.530Z,5.45
2022-11-03T01:16:58.963Z,5.80
2022-11-03T01:19:25.432Z,5.38
2022-11-03T01:21:53.373Z,5.20
2022-11-03T01:24:20.182Z,5.45
2022-11-03T01:26:46.649Z,5.55
2022-11-03T01:29:13.112Z,6.35
2022-11-03T01:31:39.959Z,6.20
2022-11-03T01:34:06.533Z,5.20
2022-11-03T01:36:32.987Z,5.97
2022-11-03T01:38:59.425Z,5.85
2022-11-03T01:41:28.297Z,5.63
2022-11-03T01:44:06.926Z,5.78
2022-11-03T01:46:38.168Z,5.82
2022-11-03T01:49:19.548Z,5.30
2022-11-03T01:51:52.309Z,6.13
2022-11-03T01:54:23.664Z,5.35
2022-11-03T01:56:51.802Z,5.35
2022-11-03T01:59:20.696Z,5.40
2022-11-03T02:01:49.180Z,5.43
2022-11-03T02:04:28.857Z,5.60
2022-11-03T02:09:46.949Z,4.55
2022-11-03T02:12:14.898Z,4.57
2022-11-03T02:14:49.018Z,5.20
2022-11-03T02:17:17.143Z,5.03
2022-11-03T02:19:56.518Z,4.50
2022-11-03T02:22:53.408Z,4.70
2022-11-03T02:25:29.015Z,4.53
2022-11-03T02:27:55.447Z,4.38
2022-11-03T02:30:21.867Z,4.18
2022-11-03T02:32:56.002Z,4.22
2022-11-03T02:35:35.138Z,4.18
2022-11-03T02:38:05.039Z,4.25
2022-11-03T02:40:39.182Z,4.57
2022-11-03T02:43:06.279Z,4.95
2022-11-03T02:45:33.005Z,3.80
2022-11-03T02:48:01.602Z,4.07
2022-11-03T02:50:32.648Z,3.83
2022-11-03T02:52:59.294Z,3.42
2022-11-03T02:55:38.649Z,4.40
2022-11-03T02:58:19.192Z,3.85
2022-11-03T03:00:52.225Z,4.40
2022-11-03T03:03:40.372Z,4.03
2022-11-03T03:06:11.368Z,3.90
2022-11-03T03:08:44.193Z,3.83
2022-11-03T03:11:12.663Z,4.00
2022-11-03T03:13:42.769Z,3.60
2022-11-03T03:16:17.256Z,3.28
2022-11-03T03:19:20.985Z,3.40
2022-11-03T03:21:51.110Z,3.30
2022-11-03T03:24:38.844Z,3.50
2022-11-03T03:27:10.345Z,4.13
2022-11-03T03:29:41.872Z,3.55
2022-11-03T03:32:10.749Z,3.22
2022-11-03T03:34:41.839Z,3.67
2022-11-03T03:37:10.815Z,3.58
2022-11-03T03:39:42.008Z,3.63
2022-11-03T03:42:10.451Z,3.58
2022-11-03T03:44:38.769Z,3.72
2022-11-03T03:47:12.269Z,3.53
2022-11-03T03:49:38.830Z,3.50
2022-11-03T03:52:05.353Z,3.28
2022-11-03T03:54:31.818Z,3.90
2022-11-03T03:57:03.889Z,3.50
2022-11-03T03:59:30.644Z,3.42
2022-11-03T04:01:57.953Z,3.47
2022-11-03T04:04:24.464Z,3.55
2022-11-03T04:07:10.899Z,3.80
2022-11-03T04:09:37.379Z,3.20
2022-11-03T04:12:22.336Z,3.40
2022-11-03T04:15:07.522Z,3.53
2022-11-03T04:17:52.530Z,4.05
2022-11-03T04:20:37.545Z,3.45
2022-11-03T04:23:04.073Z,3.90
2022-11-03T04:25:30.578Z,3.40
2022-11-03T04:27:57.075Z,3.40
2022-11-03T04:30:25.041Z,3.50
2022-11-03T04:32:52.675Z,3.42
2022-11-03T04:35:24.646Z,3.35
2022-11-03T04:37:57.360Z,3.25
2022-11-03T04:40:24.069Z,3.22
2022-11-03T04:42:50.727Z,3.50
2022-11-03T04:45:26.172Z,3.28
2022-11-03T04:47:52.960Z,3.22
2022-11-03T04:50:21.271Z,3.63
2022-11-03T04:52:49.114Z,3.15
2022-11-03T04:55:18.254Z,3.70
2022-11-03T04:57:45.211Z,3.67
2022-11-03T05:00:19.427Z,3.53
2022-11-03T05:02:51.507Z,2.83
2022-11-03T05:05:24.407Z,3.53
2022-11-03T05:07:56.562Z,3.08
2022-11-03T05:10:26.762Z,3.08
2022-11-03T05:12:57.561Z,3.30
2022-11-03T05:15:30.100Z,3.42
2022-11-03T05:17:58.585Z,3.65
2022-11-03T05:20:37.370Z,3.45
2022-11-03T05:23:05.934Z,3.42
2022-11-03T05:25:40.998Z,3.45
2022-11-03T05:28:24.433Z,3.50
2022-11-03T05:30:52.484Z,3.70
2022-11-03T05:33:21.946Z,3.92
2022-11-03T05:35:48.519Z,3.33
2022-11-03T05:38:18.682Z,3.50
2022-11-03T05:40:45.103Z,3.30
2022-11-03T05:43:14.497Z,3.70
2022-11-03T05:45:42.025Z,3.90
2022-11-03T05:48:22.615Z,3.53
2022-11-03T05:50:49.456Z,3.33
2022-11-03T05:53:35.982Z,3.05
2022-11-03T05:56:05.747Z,3.28
2022-11-03T05:58:35.944Z,3.67
2022-11-03T06:01:10.098Z,3.45
2022-11-03T06:03:36.804Z,3.13
2022-11-03T06:06:12.782Z,3.50
2022-11-03T06:08:41.687Z,2.88
2022-11-03T06:11:25.448Z,3.08
2022-11-03T06:13:52.150Z,3.75
2022-11-03T06:16:40.219Z,3.95
2022-11-03T06:19:21.437Z,3.58
2022-11-03T06:21:49.505Z,3.55
2022-11-03T06:24:17.707Z,3.75
2022-11-03T06:26:46.381Z,3.30
2022-11-03T06:29:15.968Z,3.38
2022-11-03T06:31:44.752Z,3.75
2022-11-03T06:34:45.867Z,3.90
2022-11-03T06:37:32.444Z,3.10
2022-11-03T06:40:09.181Z,3.78
2022-11-03T06:42:35.939Z,3.85
2022-11-03T06:45:14.550Z,4.10
2022-11-03T06:47:41.263Z,3.95
2022-11-03T06:50:22.096Z,3.58
2022-11-03T06:55:32.169Z,4.00
2022-11-03T06:58:02.490Z,3.80
2022-11-03T07:00:35.732Z,3.80
2022-11-03T07:03:18.154Z,4.55
2022-11-03T07:05:46.314Z,3.92
2022-11-03T07:08:23.490Z,4.22
2022-11-03T07:10:51.803Z,3.80
2022-11-03T07:13:22.536Z,4.30
2022-11-03T07:15:49.203Z,4.57
2022-11-03T07:18:35.063Z,4.00
2022-11-03T07:21:06.778Z,4.25
2022-11-03T07:23:33.218Z,4.82
2022-11-03T07:26:01.295Z,4.57
2022-11-03T07:28:38.801Z,4.75
2022-11-03T07:31:25.382Z,4.60
2022-11-03T07:33:58.142Z,4.70
2022-11-03T07:36:27.777Z,4.68
2022-11-03T07:38:56.365Z,4.60
2022-11-03T07:41:31.106Z,6.57
2022-11-03T07:44:02.018Z,5.28
2022-11-03T07:46:28.573Z,4.05
2022-11-03T07:49:01.257Z,3.50
2022-11-03T07:51:33.126Z,3.67
2022-11-03T07:54:08.469Z,3.70
2022-11-03T07:56:41.099Z,3.63
2022-11-03T07:59:13.478Z,3.83
2022-11-03T08:01:42.712Z,3.85
2022-11-03T08:04:17.255Z,3.70
2022-11-03T08:06:44.146Z,3.85
2022-11-03T08:09:10.592Z,3.92
2022-11-03T08:11:37.068Z,3.88
2022-11-03T08:14:04.094Z,3.53
2022-11-03T08:16:30.730Z,3.67
2022-11-03T08:18:57.244Z,3.33
2022-11-03T08:21:23.822Z,3.30
2022-11-03T08:23:50.957Z,3.55
2022-11-03T08:26:17.407Z,3.15
2022-11-03T08:28:43.842Z,2.92
2022-11-03T08:31:12.991Z,3.17
2022-11-03T08:33:40.380Z,2.97
2022-11-03T08:36:08.415Z,2.80
2022-11-03T08:38:35.054Z,3.33
2022-11-03T08:41:02.211Z,3.40
2022-11-03T08:43:28.947Z,2.88
2022-11-03T08:45:55.349Z,3.25
2022-11-03T08:48:23.253Z,3.10
2022-11-03T08:50:54.172Z,3.33
2022-11-03T08:53:22.737Z,3.00
2022-11-03T08:55:49.385Z,2.80
2022-11-03T08:58:15.979Z,2.80
2022-11-03T09:00:42.782Z,3.35
2022-11-03T09:03:09.504Z,2.95
2022-11-03T09:05:36.222Z,3.33
2022-11-03T09:10:49.191Z,2.80
2022-11-03T09:13:15.604Z,2.70
2022-11-03T09:15:42.447Z,2.42
2022-11-03T09:18:09.236Z,2.53
2022-11-03T09:20:35.991Z,2.75
2022-11-03T09:23:02.449Z,2.60
2022-11-03T09:25:29.048Z,2.80
2022-11-03T09:27:55.514Z,2.88
2022-11-03T09:30:22.049Z,3.05
2022-11-03T09:32:48.640Z,2.97
2022-11-03T09:35:15.304Z,2.50
2022-11-03T09:37:41.793Z,2.45
2022-11-03T09:40:10.175Z,2.40
2022-11-03T09:42:37.711Z,2.20
2022-11-03T09:45:04.963Z,2.47
2022-11-03T09:47:35.070Z,2.42
2022-11-03T09:50:02.430Z,2.30
2022-11-03T09:52:28.933Z,2.67
2022-11-03T09:54:55.768Z,2.20
2022-11-03T09:57:22.836Z,2.33
2022-11-03T09:59:50.554Z,2.97
2022-11-03T10:02:36.930Z,1.98
2022-11-03T10:05:09.735Z,2.40
2022-11-03T10:07:37.625Z,2.35
2022-11-03T10:10:04.796Z,2.22
2022-11-03T10:12:35.919Z,1.83
2022-11-03T10:15:02.357Z,2.05
2022-11-03T10:17:30.726Z,2.00
2022-11-03T10:19:58.340Z,1.90
2022-11-03T10:22:24.824Z,1.88
2022-11-03T10:25:30.124Z,2.10
2022-11-03T10:28:22.978Z,2.03
2022-11-03T10:31:14.988Z,1.77
2022-11-03T10:33:52.125Z,2.13
2022-11-03T10:36:18.603Z,2.13
2022-11-03T10:38:45.551Z,2.25
2022-11-03T10:41:16.170Z,2.33
2022-11-03T10:44:00.240Z,2.05
2022-11-03T10:49:17.230Z,1.80
2022-11-03T10:51:46.956Z,1.80
2022-11-03T10:54:16.441Z,1.73
2022-11-03T10:56:46.732Z,1.98
2022-11-03T10:59:31.797Z,2.00
2022-11-03T11:02:00.043Z,1.90
2022-11-03T11:04:26.851Z,1.77
2022-11-03T11:06:53.566Z,1.90
2022-11-03T11:09:27.952Z,2.15
2022-11-03T11:12:05.180Z,2.55
2022-11-03T11:14:34.698Z,1.58
2022-11-03T11:17:02.115Z,2.05
2022-11-03T11:19:30.355Z,1.85
2022-11-03T11:21:58.814Z,1.90
2022-11-03T11:24:43.551Z,1.75
2022-11-03T11:27:34.681Z,1.90
2022-11-03T11:30:07.297Z,1.90
2022-11-03T11:32:36.484Z,2.00
2022-11-03T11:35:03.503Z,1.70
2022-11-03T11:37:33.686Z,1.90
2022-11-03T11:40:00.299Z,1.95
2022-11-03T11:44:56.781Z,2.53
2022-11-03T11:47:47.466Z,2.38
2022-11-03T11:50:25.528Z,2.00
2022-11-03T11:53:00.660Z,2.08
2022-11-03T11:55:40.558Z,1.90
2022-11-03T11:58:43.821Z,2.60
2022-11-03T12:01:30.749Z,2.00
2022-11-03T12:04:00.536Z,1.95
2022-11-03T12:06:41.430Z,2.38
2022-11-03T12:09:13.824Z,2.25
2022-11-03T12:11:45.780Z,1.75
2022-11-03T12:14:24.354Z,1.90
2022-11-03T12:16:50.949Z,2.28
2022-11-03T12:19:36.842Z,2.13
2022-11-03T12:22:05.680Z,2.22
2022-11-03T12:24:32.237Z,2.13
2022-11-03T12:26:59.777Z,2.00
2022-11-03T12:29:26.399Z,1.98
2022-11-03T12:31:53.455Z,2.17
2022-11-03T12:34:19.939Z,1.67
2022-11-03T12:36:48.729Z,2.13
2022-11-03T12:39:18.572Z,2.00
2022-11-03T12:41:45.145Z,2.00
2022-11-03T12:44:11.700Z,2.03
2022-11-03T12:46:38.188Z,2.60
2022-11-03T12:49:04.644Z,2.17
2022-11-03T12:51:31.088Z,2.40
2022-11-03T12:53:57.515Z,2.10
2022-11-03T12:56:23.951Z,2.13
2022-11-03T12:58:50.389Z,2.08
2022-11-03T13:01:17.019Z,3.55
2022-11-03T13:03:43.599Z,1.80
2022-11-03T13:06:11.649Z,2.13
2022-11-03T13:08:38.283Z,1.85
2022-11-03T13:11:24.815Z,2.38
2022-11-03T13:13:51.986Z,2.05
2022-11-03T13:16:18.424Z,1.98
2022-11-03T13:18:44.878Z,2.10
2022-11-03T13:21:11.295Z,1.90
2022-11-03T13:23:37.816Z,2.10
2022-11-03T13:26:04.397Z,2.38
2022-11-03T13:28:31.326Z,2.40
2022-11-03T13:30:57.801Z,2.08
2022-11-03T13:33:24.274Z,2.00
2022-11-03T13:35:50.779Z,1.95
2022-11-03T13:38:17.213Z,2.00
2022-11-03T13:40:56.607Z,2.08
2022-11-03T13:43:24.883Z,2.10
2022-11-03T13:45:52.844Z,2.40
2022-11-03T13:49:20.025Z,2.03
2022-11-03T13:51:05.742Z,1.90
2022-11-03T13:56:21.901Z,2.20
2022-11-03T14:01:36.711Z,2.28
2022-11-03T14:06:49.841Z,2.47
2022-11-03T14:09:18.878Z,2.50
2022-11-03T14:12:03.654Z,2.75
2022-11-03T14:14:30.209Z,2.47
2022-11-03T14:16:56.725Z,2.75
2022-11-03T14:19:30.745Z,2.20
2022-11-03T14:22:02.113Z,2.42
2022-11-03T14:24:28.530Z,2.20
2022-11-03T14:26:55.029Z,2.58
2022-11-03T14:29:21.478Z,2.17
2022-11-03T14:31:47.980Z,2.58
2022-11-03T14:34:14.440Z,2.90
2022-11-03T14:36:40.957Z,2.20
2022-11-03T14:39:07.443Z,2.85
2022-11-03T14:41:56.748Z,2.65
2022-11-03T14:44:23.191Z,2.30
2022-11-03T14:46:49.635Z,2.25
2022-11-03T14:49:16.260Z,2.53
2022-11-03T14:51:43.005Z,2.47
2022-11-03T14:54:09.516Z,2.78
2022-11-03T14:56:35.958Z,2.63
2022-11-03T14:59:02.379Z,2.72
2022-11-03T15:01:29.004Z,3.00
2022-11-03T15:03:55.553Z,2.53
2022-11-03T15:06:21.995Z,2.55
2022-11-03T15:08:53.482Z,3.00
2022-11-03T15:11:22.518Z,2.40
2022-11-03T15:13:52.284Z,2.70
2022-11-03T15:16:19.192Z,3.63
2022-11-03T15:18:45.619Z,3.45
2022-11-03T15:21:12.065Z,3.38
2022-11-03T15:26:25.062Z,2.95
2022-11-03T15:28:51.535Z,2.47
2022-11-03T15:31:18.189Z,2.80
2022-11-03T15:33:44.584Z,2.50
2022-11-03T15:36:11.894Z,3.10
2022-11-03T15:38:38.339Z,2.53
2022-11-03T15:41:16.917Z,3.03
2022-11-03T15:43:44.811Z,2.70
2022-11-03T15:46:12.087Z,2.65
2022-11-03T15:48:38.653Z,2.72
2022-11-03T15:51:05.719Z,3.40
2022-11-03T15:53:32.320Z,2.95
2022-11-03T15:55:58.944Z,3.40
2022-11-03T15:58:25.414Z,2.70
2022-11-03T16:00:51.924Z,3.20
2022-11-03T16:03:18.452Z,2.97
2022-11-03T16:05:44.932Z,3.03
2022-11-03T16:08:11.529Z,2.90
2022-11-03T16:10:38.232Z,3.15
2022-11-03T16:13:04.792Z,3.17
2022-11-03T16:15:31.236Z,3.03
2022-11-03T16:18:02.662Z,3.17
2022-11-03T16:22:56.320Z,3.38
2022-11-03T16:25:22.892Z,3.00
2022-11-03T16:27:49.376Z,2.90
2022-11-03T16:30:15.852Z,3.15
2022-11-03T16:32:42.345Z,3.55
2022-11-03T16:35:09.814Z,2.83
2022-11-03T16:37:36.380Z,2.97
2022-11-03T16:40:03.222Z,2.80
2022-11-03T16:42:29.712Z,3.00
2022-11-03T16:44:56.156Z,3.80
2022-11-03T16:47:27.014Z,3.20
2022-11-03T16:49:55.940Z,3.15
2022-11-03T16:52:22.387Z,3.50
2022-11-03T16:54:48.896Z,3.50
2022-11-03T16:57:15.723Z,3.40
2022-11-03T16:59:42.340Z,3.13
2022-11-03T17:02:15.045Z,3.60
2022-11-03T17:04:43.715Z,4.03
2022-11-03T17:07:11.368Z,3.45
2022-11-03T17:09:38.214Z,3.38
2022-11-03T17:12:07.608Z,3.75
2022-11-03T17:14:34.017Z,3.72
2022-11-03T17:17:00.485Z,3.63
2022-11-03T17:19:27.698Z,3.55
2022-11-03T17:21:57.863Z,3.38
2022-11-03T17:24:24.775Z,3.35
2022-11-03T17:26:59.354Z,3.38
2022-11-03T17:29:34.831Z,3.03
2022-11-03T17:32:04.176Z,3.30
2022-11-03T17:34:31.231Z,3.25
2022-11-03T17:36:58.094Z,3.80
2022-11-03T17:39:29.316Z,3.22
2022-11-03T17:42:10.907Z,3.90
2022-11-03T17:44:37.463Z,3.95
2022-11-03T17:47:03.942Z,3.78
2022-11-03T17:49:31.550Z,3.63
2022-11-03T17:51:59.076Z,3.50
2022-11-03T17:54:29.257Z,3.92
2022-11-03T17:56:58.404Z,3.47
2022-11-03T17:59:24.961Z,3.38
2022-11-03T18:01:52.213Z,3.50
2022-11-03T18:04:18.894Z,3.38
2022-11-03T18:06:45.885Z,3.50
2022-11-03T18:09:13.368Z,3.70
2022-11-03T18:12:00.560Z,3.97
2022-11-03T18:14:29.354Z,3.63
2022-11-03T18:36:38.455Z,3.80
2022-11-03T18:39:05.289Z,4.13
2022-11-03T18:41:40.645Z,3.92
2022-11-03T18:44:17.550Z,4.32
2022-11-03T18:46:44.300Z,3.13
2022-11-03T18:49:10.948Z,3.30
2022-11-03T18:51:38.203Z,3.53
2022-11-03T18:54:06.248Z,3.15
2022-11-03T18:56:35.838Z,3.90
2022-11-03T18:59:21.587Z,4.00
2022-11-03T19:01:48.319Z,3.42
2022-11-03T19:04:15.188Z,4.50
2022-11-03T19:06:45.883Z,4.10
2022-11-03T19:09:17.065Z,4.40
2022-11-03T19:11:44.539Z,4.10
2022-11-03T19:14:22.309Z,4.00
2022-11-03T19:22:12.625Z,4.20
2022-11-03T19:24:40.591Z,4.20
2022-11-03T19:27:18.123Z,3.88
2022-11-03T19:29:45.756Z,3.17
2022-11-03T19:32:21.041Z,4.30
2022-11-03T19:34:54.358Z,4.05
2022-11-03T19:37:20.932Z,3.33
2022-11-03T19:39:48.601Z,4.20
2022-11-03T19:42:28.152Z,3.90
2022-11-03T19:45:01.404Z,3.90
2022-11-03T19:48:10.609Z,4.10
2022-11-03T19:50:37.431Z,4.18
2022-11-03T19:53:07.273Z,4.40
2022-11-03T19:55:37.371Z,4.15
2022-11-03T19:58:26.008Z,4.18
2022-11-03T20:00:55.542Z,4.55
2022-11-03T20:03:22.969Z,4.47
2022-11-03T20:05:53.348Z,4.32
2022-11-03T20:08:23.049Z,4.28
2022-11-03T20:10:50.726Z,4.32
2022-11-03T20:13:21.794Z,4.30
2022-11-03T20:15:49.016Z,4.53
2022-11-03T20:18:16.138Z,3.72
2022-11-03T20:20:45.770Z,4.40
2022-11-03T20:23:39.942Z,4.28
2022-11-03T20:26:16.853Z,4.70
2022-11-03T20:28:49.718Z,5.57
2022-11-03T20:31:18.605Z,4.30
2022-11-03T20:33:45.115Z,4.30
2022-11-03T20:36:18.616Z,4.65
2022-11-03T20:39:00.103Z,4.78
2022-11-03T20:41:31.294Z,4.28
2022-11-03T20:44:02.078Z,6.28
2022-11-03T20:46:34.628Z,5.07
2022-11-03T20:49:01.419Z,4.55
2022-11-03T20:51:35.432Z,5.38
2022-11-03T20:54:03.591Z,5.18
2022-11-03T20:56:31.362Z,4.00
2022-11-03T20:59:09.040Z,4.40
2022-11-03T21:01:36.489Z,4.32
2022-11-03T21:04:04.322Z,4.10
2022-11-03T21:06:34.722Z,4.75
2022-11-03T21:09:03.965Z,5.40
2022-11-03T21:11:36.776Z,4.78
2022-11-03T21:14:29.600Z,4.80
2022-11-03T21:17:15.556Z,5.35
2022-11-03T21:20:02.666Z,4.90
2022-11-03T21:22:51.913Z,4.57
2022-11-03T21:25:21.661Z,5.00
2022-11-03T21:27:53.830Z,5.35
2022-11-03T21:30:25.027Z,5.40
2022-11-03T21:32:51.659Z,5.03
2022-11-03T21:35:21.111Z,17.08
2022-11-03T21:37:47.963Z,12.55
2022-11-03T21:40:14.504Z,7.97
2022-11-03T21:42:59.916Z,6.20
2022-11-03T21:45:26.365Z,4.70
2022-11-03T21:48:14.097Z,4.45
2022-11-03T21:50:41.591Z,4.85
2022-11-03T21:53:08.444Z,4.90
2022-11-03T21:55:35.504Z,4.97
2022-11-03T21:58:02.426Z,4.72
2022-11-03T22:00:28.902Z,5.10
2022-11-03T22:02:56.140Z,5.50
2022-11-03T22:05:22.761Z,4.88
2022-11-03T22:07:49.202Z,5.53
2022-11-03T22:10:15.758Z,5.18
2022-11-03T22:12:42.248Z,5.47
2022-11-03T22:15:27.791Z,5.45
2022-11-03T22:18:00.654Z,6.03
2022-11-03T22:20:45.826Z,5.40
2022-11-03T22:23:32.792Z,5.65
2022-11-03T22:26:19.070Z,5.07
2022-11-03T22:28:45.528Z,4.70
2022-11-03T22:31:30.474Z,5.90
2022-11-03T22:34:15.372Z,5.85
2022-11-03T22:36:41.825Z,6.00
2022-11-03T22:39:26.841Z,5.97
2022-11-03T22:42:11.639Z,5.22
2022-11-03T22:44:56.611Z,5.13
2022-11-03T22:47:23.039Z,5.97
2022-11-03T22:49:49.454Z,6.00
2022-11-03T22:52:15.977Z,5.65
2022-11-03T22:54:42.455Z,6.07
2022-11-03T22:57:11.353Z,6.28
2022-11-03T22:59:37.790Z,7.03
2022-11-03T23:02:04.476Z,6.07
2022-11-03T23:04:31.054Z,6.47
2022-11-03T23:06:57.497Z,6.80
2022-11-03T23:09:23.896Z,6.10
2022-11-03T23:11:50.370Z,6.25
2022-11-03T23:14:16.820Z,6.65
2022-11-03T23:16:44.715Z,7.57
2022-11-03T23:19:31.282Z,7.60
2022-11-03T23:21:58.289Z,6.40
2022-11-03T23:24:45.360Z,6.95
2022-11-03T23:27:12.982Z,7.22
2022-11-03T23:29:39.418Z,6.80
2022-11-03T23:32:06.278Z,7.15
2022-11-03T23:34:34.895Z,6.18
2022-11-03T23:37:01.721Z,6.60
2022-11-03T23:39:28.142Z,6.88
2022-11-03T23:41:54.585Z,6.95
2022-11-03T23:44:21.034Z,6.57
2022-11-03T23:47:06.010Z,7.10
2022-11-03T23:49:32.494Z,7.00
2022-11-03T23:51:58.959Z,6.97
2022-11-03T23:54:27.070Z,7.22
2022-11-03T23:57:12.095Z,9.00
2022-11-03T23:59:38.573Z,7.50
